sensor_id;sensor_type;location;lat;lon;timestamp;P1;durP1;ratioP1;P2;durP2;ratioP2
3407;SDS011;1717;50.240;8.406;2023-04-03T00:01:36;2.60;;;1.40;;
3407;SDS011;1717;50.240;8.406;2023-04-03T00:04:04;4.90;;;1.57;;
3407;SDS011;1717;50.240;8.406;2023-04-03T00:06:32;2.83;;;1.43;;
3407;SDS011;1717;50.240;8.406;2023-04-03T00:09:00;1.70;;;1.53;;
3407;SDS011;1717;50.240;8.406;2023-04-03T00:11:26;3.20;;;1.60;;
3407;SDS011;1717;50.240;8.406;2023-04-03T00:13:53;2.10;;;1.83;;
3407;SDS011;1717;50.240;8.406;2023-04-03T00:16:20;3.20;;;1.63;;
3407;SDS011;1717;50.240;8.406;2023-04-03T00:18:47;2.27;;;1.80;;
3407;SDS011;1717;50.240;8.406;2023-04-03T00:21:14;3.87;;;1.87;;
3407;SDS011;1717;50.240;8.406;2023-04-03T00:23:42;4.77;;;2.20;;
3407;SDS011;1717;50.240;8.406;2023-04-03T00:26:09;1.97;;;1.67;;
3407;SDS011;1717;50.240;8.406;2023-04-03T00:28:36;7.53;;;2.23;;
3407;SDS011;1717;50.240;8.406;2023-04-03T00:31:03;2.43;;;2.23;;
3407;SDS011;1717;50.240;8.406;2023-04-03T00:33:30;1.90;;;1.70;;
3407;SDS011;1717;50.240;8.406;2023-04-03T00:35:57;1.40;;;1.30;;
3407;SDS011;1717;50.240;8.406;2023-04-03T00:38:24;1.70;;;1.60;;
3407;SDS011;1717;50.240;8.406;2023-04-03T00:40:52;2.30;;;1.33;;
3407;SDS011;1717;50.240;8.406;2023-04-03T00:43:20;1.50;;;1.23;;
3407;SDS011;1717;50.240;8.406;2023-04-03T00:45:48;3.30;;;1.80;;
3407;SDS011;1717;50.240;8.406;2023-04-03T00:48:17;4.63;;;1.73;;
3407;SDS011;1717;50.240;8.406;2023-04-03T00:50:46;1.80;;;1.60;;
3407;SDS011;1717;50.240;8.406;2023-04-03T00:53:16;1.90;;;1.60;;
3407;SDS011;1717;50.240;8.406;2023-04-03T00:55:47;2.93;;;2.63;;
3407;SDS011;1717;50.240;8.406;2023-04-03T00:58:17;1.80;;;1.70;;
3407;SDS011;1717;50.240;8.406;2023-04-03T01:00:48;2.60;;;1.77;;
3407;SDS011;1717;50.240;8.406;2023-04-03T01:03:22;1.77;;;1.30;;
3407;SDS011;1717;50.240;8.406;2023-04-03T01:05:49;2.73;;;1.93;;
3407;SDS011;1717;50.240;8.406;2023-04-03T01:08:16;2.20;;;1.80;;
3407;SDS011;1717;50.240;8.406;2023-04-03T01:10:44;3.00;;;1.80;;
3407;SDS011;1717;50.240;8.406;2023-04-03T01:13:19;3.43;;;1.50;;
3407;SDS011;1717;50.240;8.406;2023-04-03T01:15:49;9.23;;;2.13;;
3407;SDS011;1717;50.240;8.406;2023-04-03T01:18:16;1.83;;;1.60;;
3407;SDS011;1717;50.240;8.406;2023-04-03T01:20:49;1.63;;;1.47;;
3407;SDS011;1717;50.240;8.406;2023-04-03T01:23:37;2.37;;;1.60;;
3407;SDS011;1717;50.240;8.406;2023-04-03T01:26:10;2.93;;;1.60;;
3407;SDS011;1717;50.240;8.406;2023-04-03T01:28:39;2.73;;;1.70;;
3407;SDS011;1717;50.240;8.406;2023-04-03T01:31:09;2.20;;;1.70;;
3407;SDS011;1717;50.240;8.406;2023-04-03T01:33:43;2.60;;;1.63;;
3407;SDS011;1717;50.240;8.406;2023-04-03T01:36:12;1.70;;;1.60;;
3407;SDS011;1717;50.240;8.406;2023-04-03T01:38:41;2.37;;;1.40;;
3407;SDS011;1717;50.240;8.406;2023-04-03T01:41:08;4.00;;;1.80;;
3407;SDS011;1717;50.240;8.406;2023-04-03T01:43:35;1.20;;;1.13;;
3407;SDS011;1717;50.240;8.406;2023-04-03T01:46:02;2.93;;;1.40;;
3407;SDS011;1717;50.240;8.406;2023-04-03T01:48:29;2.20;;;1.57;;
3407;SDS011;1717;50.240;8.406;2023-04-03T01:50:57;1.30;;;1.20;;
3407;SDS011;1717;50.240;8.406;2023-04-03T01:53:24;2.30;;;2.10;;
3407;SDS011;1717;50.240;8.406;2023-04-03T01:55:51;2.93;;;1.97;;
3407;SDS011;1717;50.240;8.406;2023-04-03T01:58:18;3.83;;;1.70;;
3407;SDS011;1717;50.240;8.406;2023-04-03T02:00:44;1.97;;;1.60;;
3407;SDS011;1717;50.240;8.406;2023-04-03T02:03:11;3.50;;;1.90;;
3407;SDS011;1717;50.240;8.406;2023-04-03T02:05:38;3.93;;;2.20;;
3407;SDS011;1717;50.240;8.406;2023-04-03T02:08:06;1.73;;;1.43;;
3407;SDS011;1717;50.240;8.406;2023-04-03T02:10:33;3.83;;;2.03;;
3407;SDS011;1717;50.240;8.406;2023-04-03T02:13:00;3.97;;;2.13;;
3407;SDS011;1717;50.240;8.406;2023-04-03T02:15:27;4.30;;;1.70;;
3407;SDS011;1717;50.240;8.406;2023-04-03T02:17:54;2.73;;;1.70;;
3407;SDS011;1717;50.240;8.406;2023-04-03T02:20:21;1.70;;;1.50;;
3407;SDS011;1717;50.240;8.406;2023-04-03T02:22:48;1.70;;;1.47;;
3407;SDS011;1717;50.240;8.406;2023-04-03T02:25:16;1.97;;;1.87;;
3407;SDS011;1717;50.240;8.406;2023-04-03T02:27:43;3.43;;;2.27;;
3407;SDS011;1717;50.240;8.406;2023-04-03T02:30:10;3.17;;;2.13;;
3407;SDS011;1717;50.240;8.406;2023-04-03T02:32:39;3.77;;;1.60;;
3407;SDS011;1717;50.240;8.406;2023-04-03T02:35:07;4.03;;;2.00;;
3407;SDS011;1717;50.240;8.406;2023-04-03T02:37:34;1.97;;;1.70;;
3407;SDS011;1717;50.240;8.406;2023-04-03T02:40:01;2.60;;;1.63;;
3407;SDS011;1717;50.240;8.406;2023-04-03T02:42:30;2.50;;;1.90;;
3407;SDS011;1717;50.240;8.406;2023-04-03T02:44:57;2.57;;;1.53;;
3407;SDS011;1717;50.240;8.406;2023-04-03T02:47:25;2.23;;;2.00;;
3407;SDS011;1717;50.240;8.406;2023-04-03T02:49:52;2.87;;;1.70;;
3407;SDS011;1717;50.240;8.406;2023-04-03T02:52:19;2.23;;;1.53;;
3407;SDS011;1717;50.240;8.406;2023-04-03T02:54:46;4.40;;;1.60;;
3407;SDS011;1717;50.240;8.406;2023-04-03T02:57:13;3.00;;;1.60;;
3407;SDS011;1717;50.240;8.406;2023-04-03T02:59:41;7.50;;;1.97;;
3407;SDS011;1717;50.240;8.406;2023-04-03T03:02:09;5.67;;;1.80;;
3407;SDS011;1717;50.240;8.406;2023-04-03T03:04:36;6.20;;;2.33;;
3407;SDS011;1717;50.240;8.406;2023-04-03T03:07:03;4.63;;;1.43;;
3407;SDS011;1717;50.240;8.406;2023-04-03T03:09:30;4.53;;;1.60;;
3407;SDS011;1717;50.240;8.406;2023-04-03T03:11:58;2.40;;;1.50;;
3407;SDS011;1717;50.240;8.406;2023-04-03T03:14:25;4.67;;;1.57;;
3407;SDS011;1717;50.240;8.406;2023-04-03T03:16:53;2.73;;;1.80;;
3407;SDS011;1717;50.240;8.406;2023-04-03T03:19:20;5.30;;;2.80;;
3407;SDS011;1717;50.240;8.406;2023-04-03T03:21:47;2.80;;;1.40;;
3407;SDS011;1717;50.240;8.406;2023-04-03T03:24:13;4.03;;;1.67;;
3407;SDS011;1717;50.240;8.406;2023-04-03T03:26:41;5.80;;;3.00;;
3407;SDS011;1717;50.240;8.406;2023-04-03T03:29:08;2.40;;;1.60;;
3407;SDS011;1717;50.240;8.406;2023-04-03T03:31:35;3.63;;;1.60;;
3407;SDS011;1717;50.240;8.406;2023-04-03T03:34:03;3.80;;;1.83;;
3407;SDS011;1717;50.240;8.406;2023-04-03T03:36:30;4.50;;;1.80;;
3407;SDS011;1717;50.240;8.406;2023-04-03T03:38:56;2.40;;;1.50;;
3407;SDS011;1717;50.240;8.406;2023-04-03T03:41:23;6.40;;;1.67;;
3407;SDS011;1717;50.240;8.406;2023-04-03T03:43:50;4.10;;;2.20;;
3407;SDS011;1717;50.240;8.406;2023-04-03T03:46:17;2.10;;;1.47;;
3407;SDS011;1717;50.240;8.406;2023-04-03T03:48:43;3.03;;;1.73;;
3407;SDS011;1717;50.240;8.406;2023-04-03T03:51:12;4.70;;;1.83;;
3407;SDS011;1717;50.240;8.406;2023-04-03T03:53:38;4.70;;;1.50;;
3407;SDS011;1717;50.240;8.406;2023-04-03T03:56:05;2.70;;;1.50;;
3407;SDS011;1717;50.240;8.406;2023-04-03T03:58:32;3.83;;;1.30;;
3407;SDS011;1717;50.240;8.406;2023-04-03T04:01:00;3.93;;;1.50;;
3407;SDS011;1717;50.240;8.406;2023-04-03T04:03:28;3.67;;;1.43;;
3407;SDS011;1717;50.240;8.406;2023-04-03T04:05:54;5.80;;;1.80;;
3407;SDS011;1717;50.240;8.406;2023-04-03T04:08:23;3.13;;;1.93;;
3407;SDS011;1717;50.240;8.406;2023-04-03T04:10:50;3.83;;;1.90;;
3407;SDS011;1717;50.240;8.406;2023-04-03T04:13:17;2.10;;;1.57;;
3407;SDS011;1717;50.240;8.406;2023-04-03T04:15:44;2.03;;;1.60;;
3407;SDS011;1717;50.240;8.406;2023-04-03T04:18:11;5.80;;;1.57;;
3407;SDS011;1717;50.240;8.406;2023-04-03T04:20:38;2.57;;;1.53;;
3407;SDS011;1717;50.240;8.406;2023-04-03T04:23:05;3.03;;;1.63;;
3407;SDS011;1717;50.240;8.406;2023-04-03T04:25:33;2.83;;;1.67;;
3407;SDS011;1717;50.240;8.406;2023-04-03T04:27:59;3.43;;;1.30;;
3407;SDS011;1717;50.240;8.406;2023-04-03T04:30:26;2.83;;;1.83;;
3407;SDS011;1717;50.240;8.406;2023-04-03T04:32:53;5.03;;;1.80;;
3407;SDS011;1717;50.240;8.406;2023-04-03T04:35:20;6.20;;;1.70;;
3407;SDS011;1717;50.240;8.406;2023-04-03T04:37:47;2.53;;;1.70;;
3407;SDS011;1717;50.240;8.406;2023-04-03T04:40:14;4.33;;;2.00;;
3407;SDS011;1717;50.240;8.406;2023-04-03T04:42:42;2.20;;;2.00;;
3407;SDS011;1717;50.240;8.406;2023-04-03T04:45:09;1.73;;;1.47;;
3407;SDS011;1717;50.240;8.406;2023-04-03T04:47:36;1.70;;;1.60;;
3407;SDS011;1717;50.240;8.406;2023-04-03T04:50:03;4.87;;;2.10;;
3407;SDS011;1717;50.240;8.406;2023-04-03T04:52:31;4.07;;;1.70;;
3407;SDS011;1717;50.240;8.406;2023-04-03T04:54:58;2.63;;;1.90;;
3407;SDS011;1717;50.240;8.406;2023-04-03T04:57:25;2.97;;;1.57;;
3407;SDS011;1717;50.240;8.406;2023-04-03T04:59:53;3.90;;;1.90;;
3407;SDS011;1717;50.240;8.406;2023-04-03T05:02:20;4.07;;;2.10;;
3407;SDS011;1717;50.240;8.406;2023-04-03T05:04:47;4.27;;;1.47;;
3407;SDS011;1717;50.240;8.406;2023-04-03T05:07:15;4.60;;;2.00;;
3407;SDS011;1717;50.240;8.406;2023-04-03T05:09:42;1.80;;;1.30;;
3407;SDS011;1717;50.240;8.406;2023-04-03T05:12:08;2.90;;;1.40;;
3407;SDS011;1717;50.240;8.406;2023-04-03T05:14:35;2.00;;;1.70;;
3407;SDS011;1717;50.240;8.406;2023-04-03T05:17:04;3.17;;;1.87;;
3407;SDS011;1717;50.240;8.406;2023-04-03T05:19:30;5.50;;;1.60;;
3407;SDS011;1717;50.240;8.406;2023-04-03T05:21:57;4.17;;;1.70;;
3407;SDS011;1717;50.240;8.406;2023-04-03T05:24:24;2.13;;;1.50;;
3407;SDS011;1717;50.240;8.406;2023-04-03T05:26:51;3.73;;;2.30;;
3407;SDS011;1717;50.240;8.406;2023-04-03T05:29:18;2.17;;;1.80;;
3407;SDS011;1717;50.240;8.406;2023-04-03T05:31:45;5.80;;;1.90;;
3407;SDS011;1717;50.240;8.406;2023-04-03T05:34:13;2.60;;;2.23;;
3407;SDS011;1717;50.240;8.406;2023-04-03T05:36:40;3.70;;;1.63;;
3407;SDS011;1717;50.240;8.406;2023-04-03T05:39:07;2.80;;;1.90;;
3407;SDS011;1717;50.240;8.406;2023-04-03T05:41:34;3.17;;;1.43;;
3407;SDS011;1717;50.240;8.406;2023-04-03T05:44:01;6.33;;;2.30;;
3407;SDS011;1717;50.240;8.406;2023-04-03T05:46:27;2.03;;;1.57;;
3407;SDS011;1717;50.240;8.406;2023-04-03T05:48:54;3.60;;;1.60;;
3407;SDS011;1717;50.240;8.406;2023-04-03T05:51:24;3.40;;;1.43;;
3407;SDS011;1717;50.240;8.406;2023-04-03T05:53:52;4.43;;;1.50;;
3407;SDS011;1717;50.240;8.406;2023-04-03T05:56:23;2.53;;;1.80;;
3407;SDS011;1717;50.240;8.406;2023-04-03T05:58:50;2.77;;;1.60;;
3407;SDS011;1717;50.240;8.406;2023-04-03T06:01:17;4.57;;;2.03;;
3407;SDS011;1717;50.240;8.406;2023-04-03T06:03:44;4.37;;;1.50;;
3407;SDS011;1717;50.240;8.406;2023-04-03T06:06:12;1.40;;;1.20;;
3407;SDS011;1717;50.240;8.406;2023-04-03T06:08:40;3.80;;;2.27;;
3407;SDS011;1717;50.240;8.406;2023-04-03T06:11:08;3.23;;;1.90;;
3407;SDS011;1717;50.240;8.406;2023-04-03T06:13:35;3.73;;;2.17;;
3407;SDS011;1717;50.240;8.406;2023-04-03T06:16:03;3.40;;;1.83;;
3407;SDS011;1717;50.240;8.406;2023-04-03T06:18:30;2.73;;;1.73;;
3407;SDS011;1717;50.240;8.406;2023-04-03T06:20:57;2.60;;;2.00;;
3407;SDS011;1717;50.240;8.406;2023-04-03T06:23:25;3.57;;;2.43;;
3407;SDS011;1717;50.240;8.406;2023-04-03T06:25:54;3.03;;;2.07;;
3407;SDS011;1717;50.240;8.406;2023-04-03T06:28:21;2.57;;;1.83;;
3407;SDS011;1717;50.240;8.406;2023-04-03T06:30:47;3.70;;;2.27;;
3407;SDS011;1717;50.240;8.406;2023-04-03T06:33:15;3.60;;;2.27;;
3407;SDS011;1717;50.240;8.406;2023-04-03T06:35:42;7.53;;;3.77;;
3407;SDS011;1717;50.240;8.406;2023-04-03T06:38:09;9.10;;;3.60;;
3407;SDS011;1717;50.240;8.406;2023-04-03T06:40:36;3.77;;;1.90;;
3407;SDS011;1717;50.240;8.406;2023-04-03T06:43:04;5.23;;;2.23;;
3407;SDS011;1717;50.240;8.406;2023-04-03T06:45:32;9.70;;;2.13;;
3407;SDS011;1717;50.240;8.406;2023-04-03T06:47:59;2.80;;;2.23;;
3407;SDS011;1717;50.240;8.406;2023-04-03T06:50:26;4.40;;;2.30;;
3407;SDS011;1717;50.240;8.406;2023-04-03T06:52:53;7.90;;;2.90;;
3407;SDS011;1717;50.240;8.406;2023-04-03T06:55:20;4.10;;;1.80;;
3407;SDS011;1717;50.240;8.406;2023-04-03T06:57:47;6.60;;;2.10;;
3407;SDS011;1717;50.240;8.406;2023-04-03T07:00:16;8.73;;;2.83;;
3407;SDS011;1717;50.240;8.406;2023-04-03T07:02:43;6.70;;;3.17;;
3407;SDS011;1717;50.240;8.406;2023-04-03T07:05:10;5.90;;;2.43;;
3407;SDS011;1717;50.240;8.406;2023-04-03T07:07:38;5.97;;;2.93;;
3407;SDS011;1717;50.240;8.406;2023-04-03T07:10:06;8.17;;;3.67;;
3407;SDS011;1717;50.240;8.406;2023-04-03T07:12:35;6.03;;;2.50;;
3407;SDS011;1717;50.240;8.406;2023-04-03T07:15:03;4.20;;;2.97;;
3407;SDS011;1717;50.240;8.406;2023-04-03T07:17:32;4.63;;;2.90;;
3407;SDS011;1717;50.240;8.406;2023-04-03T07:19:59;3.70;;;2.67;;
3407;SDS011;1717;50.240;8.406;2023-04-03T07:22:26;5.20;;;2.57;;
3407;SDS011;1717;50.240;8.406;2023-04-03T07:24:53;4.80;;;2.40;;
3407;SDS011;1717;50.240;8.406;2023-04-03T07:27:20;6.00;;;2.43;;
3407;SDS011;1717;50.240;8.406;2023-04-03T07:29:47;5.60;;;3.27;;
3407;SDS011;1717;50.240;8.406;2023-04-03T07:32:15;8.23;;;2.93;;
3407;SDS011;1717;50.240;8.406;2023-04-03T07:34:44;7.17;;;3.33;;
3407;SDS011;1717;50.240;8.406;2023-04-03T07:37:11;3.33;;;2.70;;
3407;SDS011;1717;50.240;8.406;2023-04-03T07:39:37;4.03;;;3.30;;
3407;SDS011;1717;50.240;8.406;2023-04-03T07:42:05;5.43;;;3.30;;
3407;SDS011;1717;50.240;8.406;2023-04-03T07:44:32;3.93;;;3.17;;
3407;SDS011;1717;50.240;8.406;2023-04-03T07:47:00;8.30;;;3.50;;
3407;SDS011;1717;50.240;8.406;2023-04-03T07:49:27;3.53;;;2.60;;
3407;SDS011;1717;50.240;8.406;2023-04-03T07:51:56;5.87;;;3.37;;
3407;SDS011;1717;50.240;8.406;2023-04-03T07:54:23;3.87;;;3.17;;
3407;SDS011;1717;50.240;8.406;2023-04-03T07:56:50;3.47;;;3.17;;
3407;SDS011;1717;50.240;8.406;2023-04-03T07:59:18;5.33;;;2.90;;
3407;SDS011;1717;50.240;8.406;2023-04-03T08:01:45;5.80;;;2.97;;
3407;SDS011;1717;50.240;8.406;2023-04-03T08:04:12;5.07;;;2.70;;
3407;SDS011;1717;50.240;8.406;2023-04-03T08:06:39;4.83;;;3.37;;
3407;SDS011;1717;50.240;8.406;2023-04-03T08:09:08;5.83;;;3.63;;
3407;SDS011;1717;50.240;8.406;2023-04-03T08:11:35;2.97;;;2.67;;
3407;SDS011;1717;50.240;8.406;2023-04-03T08:14:04;4.10;;;2.60;;
3407;SDS011;1717;50.240;8.406;2023-04-03T08:16:31;4.80;;;3.07;;
3407;SDS011;1717;50.240;8.406;2023-04-03T08:18:58;6.53;;;2.93;;
3407;SDS011;1717;50.240;8.406;2023-04-03T08:21:25;4.43;;;3.10;;
3407;SDS011;1717;50.240;8.406;2023-04-03T08:23:52;3.50;;;2.97;;
3407;SDS011;1717;50.240;8.406;2023-04-03T08:26:21;5.47;;;3.00;;
3407;SDS011;1717;50.240;8.406;2023-04-03T08:28:48;10.10;;;3.20;;
3407;SDS011;1717;50.240;8.406;2023-04-03T08:31:16;4.00;;;2.83;;
3407;SDS011;1717;50.240;8.406;2023-04-03T08:33:45;5.77;;;3.50;;
3407;SDS011;1717;50.240;8.406;2023-04-03T08:36:17;4.27;;;3.67;;
3407;SDS011;1717;50.240;8.406;2023-04-03T08:38:45;5.10;;;2.90;;
3407;SDS011;1717;50.240;8.406;2023-04-03T08:41:14;3.60;;;2.70;;
3407;SDS011;1717;50.240;8.406;2023-04-03T08:43:55;5.23;;;2.70;;
3407;SDS011;1717;50.240;8.406;2023-04-03T08:46:32;3.10;;;2.60;;
3407;SDS011;1717;50.240;8.406;2023-04-03T08:49:07;3.20;;;2.40;;
3407;SDS011;1717;50.240;8.406;2023-04-03T08:51:40;3.97;;;2.80;;
3407;SDS011;1717;50.240;8.406;2023-04-03T08:54:14;3.90;;;2.43;;
3407;SDS011;1717;50.240;8.406;2023-04-03T08:56:51;3.07;;;2.40;;
3407;SDS011;1717;50.240;8.406;2023-04-03T08:59:22;3.63;;;2.33;;
3407;SDS011;1717;50.240;8.406;2023-04-03T09:01:53;4.53;;;2.60;;
3407;SDS011;1717;50.240;8.406;2023-04-03T09:04:20;4.17;;;2.80;;
3407;SDS011;1717;50.240;8.406;2023-04-03T09:06:49;6.37;;;2.90;;
3407;SDS011;1717;50.240;8.406;2023-04-03T09:09:23;2.60;;;2.40;;
3407;SDS011;1717;50.240;8.406;2023-04-03T09:12:00;5.47;;;2.80;;
3407;SDS011;1717;50.240;8.406;2023-04-03T09:14:37;3.77;;;2.47;;
3407;SDS011;1717;50.240;8.406;2023-04-03T09:17:09;2.70;;;2.50;;
3407;SDS011;1717;50.240;8.406;2023-04-03T09:19:45;3.50;;;2.50;;
3407;SDS011;1717;50.240;8.406;2023-04-03T09:22:22;3.97;;;2.47;;
3407;SDS011;1717;50.240;8.406;2023-04-03T09:24:53;5.83;;;2.60;;
3407;SDS011;1717;50.240;8.406;2023-04-03T09:27:25;4.07;;;2.60;;
3407;SDS011;1717;50.240;8.406;2023-04-03T09:29:54;6.00;;;2.30;;
3407;SDS011;1717;50.240;8.406;2023-04-03T09:32:25;4.93;;;1.83;;
3407;SDS011;1717;50.240;8.406;2023-04-03T09:34:53;4.43;;;2.10;;
3407;SDS011;1717;50.240;8.406;2023-04-03T09:37:33;5.37;;;2.53;;
3407;SDS011;1717;50.240;8.406;2023-04-03T09:40:02;6.67;;;2.20;;
3407;SDS011;1717;50.240;8.406;2023-04-03T09:42:30;4.57;;;2.53;;
3407;SDS011;1717;50.240;8.406;2023-04-03T09:45:00;4.23;;;2.40;;
3407;SDS011;1717;50.240;8.406;2023-04-03T09:47:30;3.33;;;2.37;;
3407;SDS011;1717;50.240;8.406;2023-04-03T09:52:46;3.50;;;2.67;;
3407;SDS011;1717;50.240;8.406;2023-04-03T09:55:17;3.83;;;2.40;;
3407;SDS011;1717;50.240;8.406;2023-04-03T09:57:46;6.47;;;2.93;;
3407;SDS011;1717;50.240;8.406;2023-04-03T10:00:21;4.77;;;2.47;;
3407;SDS011;1717;50.240;8.406;2023-04-03T10:02:51;3.80;;;2.47;;
3407;SDS011;1717;50.240;8.406;2023-04-03T10:05:28;5.23;;;1.93;;
3407;SDS011;1717;50.240;8.406;2023-04-03T10:08:10;3.37;;;2.67;;
3407;SDS011;1717;50.240;8.406;2023-04-03T10:10:47;4.43;;;2.37;;
3407;SDS011;1717;50.240;8.406;2023-04-03T10:13:31;4.07;;;2.70;;
3407;SDS011;1717;50.240;8.406;2023-04-03T10:16:01;5.10;;;2.30;;
3407;SDS011;1717;50.240;8.406;2023-04-03T10:18:35;4.63;;;2.20;;
3407;SDS011;1717;50.240;8.406;2023-04-03T10:21:09;3.10;;;2.20;;
3407;SDS011;1717;50.240;8.406;2023-04-03T10:23:42;4.40;;;2.00;;
3407;SDS011;1717;50.240;8.406;2023-04-03T10:26:17;2.47;;;2.27;;
3407;SDS011;1717;50.240;8.406;2023-04-03T10:28:56;2.50;;;1.97;;
3407;SDS011;1717;50.240;8.406;2023-04-03T10:31:31;2.43;;;2.23;;
3407;SDS011;1717;50.240;8.406;2023-04-03T10:34:04;3.33;;;2.10;;
3407;SDS011;1717;50.240;8.406;2023-04-03T10:36:36;2.47;;;2.27;;
3407;SDS011;1717;50.240;8.406;2023-04-03T10:39:12;3.30;;;2.20;;
3407;SDS011;1717;50.240;8.406;2023-04-03T10:41:54;1.67;;;1.50;;
3407;SDS011;1717;50.240;8.406;2023-04-03T10:44:29;3.87;;;2.20;;
3407;SDS011;1717;50.240;8.406;2023-04-03T10:47:06;5.33;;;2.23;;
3407;SDS011;1717;50.240;8.406;2023-04-03T10:49:41;5.73;;;2.40;;
3407;SDS011;1717;50.240;8.406;2023-04-03T10:52:17;4.67;;;2.40;;
3407;SDS011;1717;50.240;8.406;2023-04-03T10:54:49;3.40;;;2.40;;
3407;SDS011;1717;50.240;8.406;2023-04-03T10:57:29;2.30;;;1.83;;
3407;SDS011;1717;50.240;8.406;2023-04-03T10:59:57;3.10;;;2.37;;
3407;SDS011;1717;50.240;8.406;2023-04-03T11:02:29;2.47;;;2.27;;
3407;SDS011;1717;50.240;8.406;2023-04-03T11:04:59;2.37;;;2.17;;
3407;SDS011;1717;50.240;8.406;2023-04-03T11:07:28;5.10;;;2.67;;
3407;SDS011;1717;50.240;8.406;2023-04-03T11:10:03;2.70;;;2.50;;
3407;SDS011;1717;50.240;8.406;2023-04-03T11:12:40;2.93;;;2.17;;
3407;SDS011;1717;50.240;8.406;2023-04-03T11:15:11;4.87;;;2.20;;
3407;SDS011;1717;50.240;8.406;2023-04-03T11:17:43;3.20;;;2.00;;
3407;SDS011;1717;50.240;8.406;2023-04-03T11:20:17;2.13;;;1.93;;
3407;SDS011;1717;50.240;8.406;2023-04-03T11:22:53;9.03;;;2.40;;
3407;SDS011;1717;50.240;8.406;2023-04-03T11:25:26;4.13;;;2.40;;
3407;SDS011;1717;50.240;8.406;2023-04-03T11:27:58;2.20;;;1.87;;
3407;SDS011;1717;50.240;8.406;2023-04-03T11:30:27;2.37;;;2.10;;
3407;SDS011;1717;50.240;8.406;2023-04-03T11:35:47;2.90;;;2.60;;
3407;SDS011;1717;50.240;8.406;2023-04-03T11:38:19;2.67;;;2.47;;
3407;SDS011;1717;50.240;8.406;2023-04-03T11:40:51;3.20;;;2.90;;
3407;SDS011;1717;50.240;8.406;2023-04-03T11:43:23;3.30;;;2.60;;
3407;SDS011;1717;50.240;8.406;2023-04-03T11:45:55;3.80;;;2.60;;
3407;SDS011;1717;50.240;8.406;2023-04-03T11:48:43;3.13;;;2.83;;
3407;SDS011;1717;50.240;8.406;2023-04-03T12:00:46;2.53;;;2.33;;
3407;SDS011;1717;50.240;8.406;2023-04-03T12:09:26;3.90;;;2.73;;
3407;SDS011;1717;50.240;8.406;2023-04-03T12:12:23;3.40;;;3.10;;
3407;SDS011;1717;50.240;8.406;2023-04-03T12:14:54;4.03;;;2.57;;
3407;SDS011;1717;50.240;8.406;2023-04-03T12:17:23;3.60;;;2.63;;
3407;SDS011;1717;50.240;8.406;2023-04-03T12:19:54;2.87;;;2.57;;
3407;SDS011;1717;50.240;8.406;2023-04-03T12:22:23;3.43;;;2.50;;
3407;SDS011;1717;50.240;8.406;2023-04-03T12:24:50;4.10;;;2.60;;
3407;SDS011;1717;50.240;8.406;2023-04-03T12:27:22;3.77;;;2.60;;
3407;SDS011;1717;50.240;8.406;2023-04-03T12:29:58;6.07;;;2.53;;
3407;SDS011;1717;50.240;8.406;2023-04-03T12:32:41;2.47;;;2.27;;
3407;SDS011;1717;50.240;8.406;2023-04-03T12:35:17;3.50;;;2.30;;
3407;SDS011;1717;50.240;8.406;2023-04-03T12:41:04;2.90;;;2.53;;
3407;SDS011;1717;50.240;8.406;2023-04-03T12:43:58;3.23;;;2.10;;
3407;SDS011;1717;50.240;8.406;2023-04-03T12:46:37;2.87;;;2.37;;
3407;SDS011;1717;50.240;8.406;2023-04-03T12:49:26;3.20;;;2.53;;
3407;SDS011;1717;50.240;8.406;2023-04-03T12:52:02;4.97;;;2.50;;
3407;SDS011;1717;50.240;8.406;2023-04-03T12:54:35;2.20;;;1.77;;
3407;SDS011;1717;50.240;8.406;2023-04-03T12:57:11;2.80;;;1.83;;
3407;SDS011;1717;50.240;8.406;2023-04-03T12:59:39;4.73;;;2.17;;
3407;SDS011;1717;50.240;8.406;2023-04-03T13:02:10;2.90;;;2.33;;
3407;SDS011;1717;50.240;8.406;2023-04-03T13:04:48;4.10;;;2.30;;
3407;SDS011;1717;50.240;8.406;2023-04-03T13:07:20;2.63;;;1.77;;
3407;SDS011;1717;50.240;8.406;2023-04-03T13:10:03;8.23;;;1.70;;
3407;SDS011;1717;50.240;8.406;2023-04-03T13:12:45;2.00;;;1.90;;
3407;SDS011;1717;50.240;8.406;2023-04-03T13:15:14;2.33;;;2.13;;
3407;SDS011;1717;50.240;8.406;2023-04-03T13:17:44;2.00;;;1.63;;
3407;SDS011;1717;50.240;8.406;2023-04-03T13:20:14;1.90;;;1.80;;
3407;SDS011;1717;50.240;8.406;2023-04-03T13:22:47;2.93;;;2.13;;
3407;SDS011;1717;50.240;8.406;2023-04-03T13:25:18;1.53;;;1.40;;
3407;SDS011;1717;50.240;8.406;2023-04-03T13:27:47;2.50;;;1.80;;
3407;SDS011;1717;50.240;8.406;2023-04-03T13:30:20;2.00;;;1.50;;
3407;SDS011;1717;50.240;8.406;2023-04-03T13:32:49;2.97;;;1.93;;
3407;SDS011;1717;50.240;8.406;2023-04-03T13:35:24;2.50;;;2.30;;
3407;SDS011;1717;50.240;8.406;2023-04-03T13:38:03;3.70;;;2.20;;
3407;SDS011;1717;50.240;8.406;2023-04-03T13:40:49;2.50;;;1.57;;
3407;SDS011;1717;50.240;8.406;2023-04-03T13:43:17;3.10;;;1.60;;
3407;SDS011;1717;50.240;8.406;2023-04-03T13:45:54;2.30;;;1.33;;
3407;SDS011;1717;50.240;8.406;2023-04-03T13:48:24;3.83;;;1.90;;
3407;SDS011;1717;50.240;8.406;2023-04-03T13:50:53;2.90;;;1.30;;
3407;SDS011;1717;50.240;8.406;2023-04-03T13:53:23;3.90;;;1.90;;
3407;SDS011;1717;50.240;8.406;2023-04-03T13:55:55;4.63;;;1.57;;
3407;SDS011;1717;50.240;8.406;2023-04-03T13:58:33;1.73;;;1.30;;
3407;SDS011;1717;50.240;8.406;2023-04-03T14:01:06;1.57;;;1.47;;
3407;SDS011;1717;50.240;8.406;2023-04-03T14:03:39;3.03;;;1.30;;
3407;SDS011;1717;50.240;8.406;2023-04-03T14:06:10;2.10;;;1.83;;
3407;SDS011;1717;50.240;8.406;2023-04-03T14:08:38;1.47;;;1.30;;
3407;SDS011;1717;50.240;8.406;2023-04-03T14:11:08;3.27;;;1.63;;
3407;SDS011;1717;50.240;8.406;2023-04-03T14:13:38;4.27;;;1.77;;
3407;SDS011;1717;50.240;8.406;2023-04-03T14:16:05;1.80;;;1.70;;
3407;SDS011;1717;50.240;8.406;2023-04-03T14:18:32;5.70;;;1.80;;
3407;SDS011;1717;50.240;8.406;2023-04-03T14:20:59;3.00;;;1.40;;
3407;SDS011;1717;50.240;8.406;2023-04-03T14:23:26;1.47;;;1.33;;
3407;SDS011;1717;50.240;8.406;2023-04-03T14:25:53;4.53;;;1.60;;
3407;SDS011;1717;50.240;8.406;2023-04-03T14:28:22;3.27;;;1.50;;
3407;SDS011;1717;50.240;8.406;2023-04-03T14:30:50;4.40;;;1.73;;
3407;SDS011;1717;50.240;8.406;2023-04-03T14:33:17;5.33;;;1.43;;
3407;SDS011;1717;50.240;8.406;2023-04-03T14:35:47;2.23;;;1.30;;
3407;SDS011;1717;50.240;8.406;2023-04-03T14:38:20;1.30;;;1.10;;
3407;SDS011;1717;50.240;8.406;2023-04-03T14:40:49;1.30;;;0.97;;
3407;SDS011;1717;50.240;8.406;2023-04-03T14:43:17;2.63;;;1.40;;
3407;SDS011;1717;50.240;8.406;2023-04-03T14:45:46;2.70;;;1.10;;
3407;SDS011;1717;50.240;8.406;2023-04-03T14:48:15;1.77;;;0.97;;
3407;SDS011;1717;50.240;8.406;2023-04-03T14:50:45;2.10;;;1.93;;
3407;SDS011;1717;50.240;8.406;2023-04-03T14:53:14;2.20;;;1.00;;
3407;SDS011;1717;50.240;8.406;2023-04-03T14:55:42;2.10;;;0.93;;
3407;SDS011;1717;50.240;8.406;2023-04-03T14:58:14;2.50;;;1.40;;
3407;SDS011;1717;50.240;8.406;2023-04-03T15:00:42;4.53;;;1.40;;
3407;SDS011;1717;50.240;8.406;2023-04-03T15:03:13;2.43;;;1.40;;
3407;SDS011;1717;50.240;8.406;2023-04-03T15:05:41;1.80;;;1.33;;
3407;SDS011;1717;50.240;8.406;2023-04-03T15:08:13;1.80;;;1.20;;
3407;SDS011;1717;50.240;8.406;2023-04-03T15:10:45;1.60;;;1.40;;
3407;SDS011;1717;50.240;8.406;2023-04-03T15:13:12;2.10;;;1.30;;
3407;SDS011;1717;50.240;8.406;2023-04-03T15:15:39;3.23;;;1.97;;
3407;SDS011;1717;50.240;8.406;2023-04-03T15:18:07;1.87;;;1.50;;
3407;SDS011;1717;50.240;8.406;2023-04-03T15:20:41;3.27;;;1.30;;
3407;SDS011;1717;50.240;8.406;2023-04-03T15:23:09;2.90;;;1.10;;
3407;SDS011;1717;50.240;8.406;2023-04-03T15:25:36;2.90;;;1.50;;
3407;SDS011;1717;50.240;8.406;2023-04-03T15:28:04;1.63;;;1.10;;
3407;SDS011;1717;50.240;8.406;2023-04-03T15:30:32;2.93;;;1.33;;
3407;SDS011;1717;50.240;8.406;2023-04-03T15:33:02;2.17;;;1.20;;
3407;SDS011;1717;50.240;8.406;2023-04-03T15:35:31;2.73;;;1.50;;
3407;SDS011;1717;50.240;8.406;2023-04-03T15:37:57;2.03;;;1.83;;
3407;SDS011;1717;50.240;8.406;2023-04-03T15:40:24;1.90;;;1.40;;
3407;SDS011;1717;50.240;8.406;2023-04-03T15:42:51;3.30;;;1.37;;
3407;SDS011;1717;50.240;8.406;2023-04-03T15:45:18;2.67;;;1.67;;
3407;SDS011;1717;50.240;8.406;2023-04-03T15:47:46;2.00;;;1.23;;
3407;SDS011;1717;50.240;8.406;2023-04-03T15:50:13;2.70;;;1.40;;
3407;SDS011;1717;50.240;8.406;2023-04-03T15:52:41;3.30;;;1.60;;
3407;SDS011;1717;50.240;8.406;2023-04-03T15:55:08;1.60;;;1.27;;